createdAt,value
2019-04-26T00:01:23.399Z,4.43
2019-04-26T00:03:54.648Z,3.83
2019-04-26T00:06:27.386Z,4.40
2019-04-26T00:09:17.903Z,4.80
2019-04-26T00:11:55.915Z,5.17
2019-04-26T00:14:54.944Z,4.57
2019-04-26T00:17:32.568Z,4.67
2019-04-26T00:20:03.729Z,5.47
2019-04-26T00:22:34.645Z,4.77
2019-04-26T00:25:05.888Z,4.73
2019-04-26T00:27:36.868Z,4.50
2019-04-26T00:30:08.185Z,4.70
2019-04-26T00:32:40.099Z,4.83
2019-04-26T00:35:11.428Z,6.10
2019-04-26T00:37:43.384Z,4.67
2019-04-26T00:40:14.397Z,3.53
2019-04-26T00:42:45.825Z,3.77
2019-04-26T00:45:16.783Z,5.03
2019-04-26T00:47:50.329Z,5.47
2019-04-26T00:50:21.567Z,4.70
2019-04-26T00:52:53.610Z,5.87
2019-04-26T00:55:24.942Z,4.40
2019-04-26T00:57:55.943Z,4.70
2019-04-26T01:00:26.765Z,4.50
2019-04-26T01:02:58.109Z,5.03
2019-04-26T01:05:30.477Z,6.37
2019-04-26T01:08:01.338Z,6.10
2019-04-26T01:10:32.187Z,7.20
2019-04-26T01:13:04.542Z,6.30
2019-04-26T01:18:18.117Z,6.07
2019-04-26T01:20:51.398Z,5.77
2019-04-26T01:23:23.322Z,7.30
2019-04-26T01:26:00.433Z,5.43
2019-04-26T01:28:36.504Z,7.77
2019-04-26T01:31:09.146Z,6.93
2019-04-26T01:33:40.890Z,6.80
2019-04-26T01:36:13.771Z,6.53
2019-04-26T01:38:48.107Z,5.27
2019-04-26T01:41:29.264Z,6.07
2019-04-26T01:44:07.262Z,5.77
2019-04-26T01:46:42.938Z,7.87
2019-04-26T01:49:17.195Z,5.83
2019-04-26T01:51:53.815Z,7.03
2019-04-26T01:54:29.922Z,6.00
2019-04-26T01:57:05.408Z,6.23
2019-04-26T01:59:42.064Z,5.93
2019-04-26T02:02:26.165Z,8.30
2019-04-26T02:05:00.152Z,6.20
2019-04-26T02:07:41.460Z,6.77
2019-04-26T02:10:18.536Z,6.10
2019-04-26T02:12:50.359Z,6.20
2019-04-26T02:15:25.376Z,7.70
2019-04-26T02:17:58.950Z,5.30
2019-04-26T02:20:54.164Z,6.23
2019-04-26T02:23:32.103Z,7.03
2019-04-26T02:26:20.809Z,5.30
2019-04-26T02:28:51.646Z,5.80
2019-04-26T02:31:23.010Z,5.93
2019-04-26T02:33:54.476Z,5.07
2019-04-26T02:36:45.268Z,5.83
2019-04-26T02:39:01.554Z,7.17
2019-04-26T02:41:35.746Z,5.93
2019-04-26T02:44:10.643Z,6.03
2019-04-26T02:46:50.090Z,5.80
2019-04-26T02:49:31.260Z,7.40
2019-04-26T02:52:43.821Z,3.87
2019-04-26T02:55:41.839Z,5.20
2019-04-26T02:58:09.055Z,6.57
2019-04-26T03:00:40.113Z,4.13
2019-04-26T03:03:12.167Z,5.43
2019-04-26T03:05:45.007Z,4.47
2019-04-26T03:08:20.107Z,5.20
2019-04-26T03:10:55.310Z,4.83
2019-04-26T03:13:43.742Z,3.90
2019-04-26T03:16:34.701Z,3.90
2019-04-26T03:19:38.191Z,6.00
2019-04-26T03:22:32.017Z,4.93
2019-04-26T03:25:15.957Z,4.63
2019-04-26T03:28:01.977Z,4.50
2019-04-26T03:30:52.259Z,3.13
2019-04-26T03:33:53.976Z,4.67
2019-04-26T03:36:53.225Z,5.17
2019-04-26T03:39:37.187Z,4.93
2019-04-26T03:42:35.036Z,4.97
2019-04-26T03:45:31.389Z,4.87
2019-04-26T03:48:10.196Z,3.70
2019-04-26T03:50:49.395Z,4.13
2019-04-26T03:53:31.235Z,4.00
2019-04-26T03:57:15.950Z,5.03
2019-04-26T04:00:11.021Z,3.80
2019-04-26T04:03:22.279Z,3.97
2019-04-26T04:05:56.406Z,5.00
2019-04-26T04:08:58.691Z,3.27
2019-04-26T04:11:38.519Z,3.87
2019-04-26T04:14:17.546Z,4.77
2019-04-26T04:17:27.337Z,4.67
2019-04-26T04:20:42.969Z,4.43
2019-04-26T04:23:53.532Z,4.70
2019-04-26T04:26:32.516Z,3.83
2019-04-26T04:29:44.804Z,5.07
2019-04-26T04:32:27.400Z,6.63
2019-04-26T04:35:01.499Z,8.93
2019-04-26T04:37:52.678Z,5.73
2019-04-26T04:40:28.909Z,8.50
2019-04-26T04:43:14.915Z,8.63
2019-04-26T04:46:22.654Z,10.47
2019-04-26T04:49:26.962Z,7.58
2019-04-26T04:52:12.063Z,7.60
2019-04-26T04:55:03.307Z,10.03
2019-04-26T04:58:03.422Z,8.40
2019-04-26T05:01:08.830Z,8.70
2019-04-26T05:03:53.460Z,7.43
2019-04-26T05:07:10.380Z,7.83
2019-04-26T05:09:53.695Z,8.87
2019-04-26T05:13:11.624Z,7.17
2019-04-26T05:16:18.043Z,8.33
2019-04-26T05:19:29.726Z,6.67
2019-04-26T05:22:24.961Z,7.00
2019-04-26T05:26:12.409Z,7.30
2019-04-26T05:28:53.805Z,8.50
2019-04-26T05:31:50.036Z,8.37
2019-04-26T05:34:44.573Z,9.47
2019-04-26T05:37:43.039Z,8.07
2019-04-26T05:40:58.345Z,7.33
2019-04-26T05:44:08.159Z,7.27
2019-04-26T05:47:12.523Z,6.80
2019-04-26T05:50:24.898Z,6.87
2019-04-26T05:53:50.125Z,7.60
2019-04-26T05:56:47.569Z,8.27
2019-04-26T05:59:43.294Z,7.03
2019-04-26T06:02:55.285Z,9.40
2019-04-26T06:06:12.074Z,7.93
2019-04-26T06:09:21.985Z,10.20
2019-04-26T06:12:03.717Z,8.73
2019-04-26T06:15:24.329Z,7.40
2019-04-26T06:18:57.835Z,6.53
2019-04-26T06:21:35.295Z,8.13
2019-04-26T06:24:23.864Z,7.00
2019-04-26T06:27:39.016Z,7.10
2019-04-26T06:30:19.663Z,6.73
2019-04-26T06:33:33.334Z,8.50
2019-04-26T06:36:10.552Z,7.90
2019-04-26T06:39:24.740Z,8.13
2019-04-26T06:42:20.317Z,8.13
2019-04-26T06:45:58.851Z,7.10
2019-04-26T06:48:58.958Z,8.47
2019-04-26T06:51:35.820Z,8.07
2019-04-26T06:54:17.808Z,8.57
2019-04-26T06:57:53.986Z,7.17
2019-04-26T07:00:30.603Z,5.63
2019-04-26T07:03:23.560Z,6.10
2019-04-26T07:05:58.970Z,10.20
2019-04-26T07:08:57.669Z,7.97
2019-04-26T07:11:54.745Z,9.53
2019-04-26T07:15:07.954Z,9.77
2019-04-26T07:18:06.332Z,8.27
2019-04-26T07:20:50.303Z,11.03
2019-04-26T07:24:18.891Z,7.83
2019-04-26T07:27:18.446Z,7.43
2019-04-26T07:30:27.453Z,8.03
2019-04-26T07:34:14.674Z,6.90
2019-04-26T07:37:41.579Z,8.60
2019-04-26T07:41:15.986Z,10.30
2019-04-26T07:44:39.859Z,14.50
2019-04-26T07:48:19.608Z,9.57
2019-04-26T07:51:26.631Z,10.60
2019-04-26T07:54:43.570Z,9.50
2019-04-26T07:57:42.936Z,11.33
2019-04-26T08:00:21.863Z,10.67
2019-04-26T08:03:11.255Z,8.27
2019-04-26T08:06:31.873Z,10.03
2019-04-26T08:09:24.807Z,8.97
2019-04-26T08:11:53.491Z,7.97
2019-04-26T08:14:32.191Z,8.40
2019-04-26T08:17:33.312Z,11.03
2019-04-26T08:20:31.966Z,7.27
2019-04-26T08:23:08.650Z,8.40
2019-04-26T08:25:40.783Z,9.10
2019-04-26T08:28:14.546Z,9.03
2019-04-26T08:30:48.096Z,8.63
2019-04-26T08:33:24.780Z,6.63
2019-04-26T08:35:58.901Z,7.40
2019-04-26T08:38:32.107Z,7.97
2019-04-26T08:41:04.925Z,8.10
2019-04-26T08:44:03.634Z,9.40
2019-04-26T08:47:01.597Z,7.70
2019-04-26T08:49:48.311Z,9.03
2019-04-26T08:52:20.728Z,8.37
2019-04-26T08:54:56.890Z,6.67
2019-04-26T08:57:31.910Z,7.93
2019-04-26T09:00:05.259Z,7.47
2019-04-26T09:03:10.792Z,8.43
2019-04-26T09:06:04.509Z,8.37
2019-04-26T09:08:39.330Z,7.40
2019-04-26T09:11:24.085Z,11.60
2019-04-26T09:13:50.178Z,10.47
2019-04-26T09:16:21.886Z,9.53
2019-04-26T09:18:55.119Z,8.77
2019-04-26T09:21:51.315Z,9.00
2019-04-26T09:24:38.136Z,8.57
2019-04-26T09:27:28.804Z,8.60
2019-04-26T09:30:05.362Z,10.97
2019-04-26T09:32:50.932Z,8.17
2019-04-26T09:35:23.007Z,9.07
2019-04-26T09:37:54.986Z,8.00
2019-04-26T09:40:25.883Z,9.23
2019-04-26T09:43:22.405Z,8.60
2019-04-26T09:46:15.357Z,8.17
2019-04-26T09:48:53.063Z,9.00
2019-04-26T09:51:24.027Z,7.73
2019-04-26T09:53:55.163Z,8.37
2019-04-26T09:56:26.179Z,11.33
2019-04-26T09:58:57.278Z,8.30
2019-04-26T10:01:28.164Z,8.60
2019-04-26T10:04:00.821Z,9.23
2019-04-26T10:06:34.787Z,7.90
2019-04-26T10:09:11.514Z,8.60
2019-04-26T10:11:47.768Z,8.70
2019-04-26T10:14:25.110Z,10.60
2019-04-26T10:17:15.633Z,8.57
2019-04-26T10:19:48.549Z,8.67
2019-04-26T10:22:19.398Z,8.80
2019-04-26T10:24:51.289Z,10.67
2019-04-26T10:27:25.251Z,8.60
2019-04-26T10:30:07.208Z,8.43
2019-04-26T10:32:28.628Z,7.57
2019-04-26T10:34:59.724Z,8.00
2019-04-26T10:37:39.246Z,7.47
2019-04-26T10:40:03.042Z,11.50
2019-04-26T10:42:35.399Z,8.17
2019-04-26T10:45:10.468Z,8.37
2019-04-26T10:47:42.587Z,7.27
2019-04-26T10:50:13.990Z,7.43
2019-04-26T10:53:06.831Z,8.93
2019-04-26T10:56:02.746Z,8.57
2019-04-26T10:58:52.712Z,16.63
2019-04-26T11:01:24.812Z,12.43
2019-04-26T11:03:55.802Z,15.43
2019-04-26T11:06:27.879Z,14.97
2019-04-26T11:08:59.460Z,12.03
2019-04-26T11:11:30.337Z,13.13
2019-04-26T11:14:01.309Z,13.23
2019-04-26T11:16:32.238Z,11.00
2019-04-26T11:19:03.043Z,15.50
2019-04-26T11:21:33.832Z,14.87
2019-04-26T11:24:04.692Z,15.03
2019-04-26T11:26:36.736Z,17.63
2019-04-26T11:29:07.587Z,17.73
2019-04-26T11:31:38.477Z,18.97
2019-04-26T11:34:09.483Z,18.87
2019-04-26T11:36:41.884Z,23.30
2019-04-26T11:39:14.944Z,23.50
2019-04-26T11:41:46.517Z,23.83
2019-04-26T11:44:18.680Z,25.43
2019-04-26T11:46:49.648Z,23.07
2019-04-26T11:49:20.428Z,21.60
2019-04-26T11:51:51.264Z,23.13
2019-04-26T11:54:22.249Z,23.83
2019-04-26T11:56:53.203Z,24.77
2019-04-26T11:59:27.005Z,25.23
2019-04-26T12:01:56.664Z,22.93
2019-04-26T12:04:45.280Z,24.07
2019-04-26T12:07:25.455Z,21.60
2019-04-26T12:09:58.211Z,22.27
2019-04-26T12:12:29.069Z,23.43
2019-04-26T12:15:03.951Z,23.43
2019-04-26T12:17:36.819Z,20.73
2019-04-26T12:20:08.838Z,21.00
2019-04-26T12:22:43.373Z,19.27
2019-04-26T12:25:12.339Z,23.60
2019-04-26T12:27:45.259Z,19.30
2019-04-26T12:30:16.591Z,22.73
2019-04-26T12:32:49.964Z,20.07
2019-04-26T12:35:20.081Z,24.50
2019-04-26T12:37:54.828Z,21.83
2019-04-26T12:40:24.538Z,23.63
2019-04-26T12:42:55.858Z,20.27
2019-04-26T12:45:55.048Z,20.00
2019-04-26T12:48:26.405Z,16.67
2019-04-26T12:50:59.246Z,17.27
2019-04-26T12:53:31.284Z,17.47
2019-04-26T12:56:02.726Z,18.70
2019-04-26T12:58:33.582Z,16.60
2019-04-26T13:01:07.851Z,15.63
2019-04-26T13:03:38.733Z,18.67
2019-04-26T13:06:10.658Z,16.43
2019-04-26T13:08:41.777Z,16.23
2019-04-26T13:11:28.059Z,14.40
2019-04-26T13:14:21.070Z,14.63
2019-04-26T13:17:03.871Z,15.60
2019-04-26T13:19:34.746Z,11.63
2019-04-26T13:22:08.565Z,11.93
2019-04-26T13:24:39.887Z,11.63
2019-04-26T13:27:12.274Z,11.50
2019-04-26T13:29:43.340Z,7.40
2019-04-26T13:32:14.338Z,9.40
2019-04-26T13:34:45.284Z,4.67
2019-04-26T13:37:18.826Z,5.93
2019-04-26T13:39:51.280Z,6.13
2019-04-26T13:42:22.241Z,5.47
2019-04-26T13:44:57.886Z,4.43
2019-04-26T13:48:02.918Z,5.13
2019-04-26T13:50:40.317Z,4.43
2019-04-26T13:53:11.098Z,3.43
2019-04-26T13:55:42.026Z,10.37
2019-04-26T13:58:15.310Z,7.27
2019-04-26T14:00:45.449Z,4.10
2019-04-26T14:03:16.377Z,4.67
2019-04-26T14:05:47.214Z,7.00
2019-04-26T14:08:18.112Z,3.97
2019-04-26T14:10:49.898Z,4.73
2019-04-26T14:13:24.940Z,4.63
2019-04-26T14:15:55.650Z,5.93
2019-04-26T14:18:26.513Z,4.13
2019-04-26T14:20:58.940Z,4.83
2019-04-26T14:23:51.043Z,7.67
2019-04-26T14:26:26.686Z,4.60
2019-04-26T14:28:58.179Z,3.93
2019-04-26T14:31:30.020Z,4.17
2019-04-26T14:34:01.169Z,3.77
2019-04-26T14:36:33.329Z,6.27
2019-04-26T14:39:06.422Z,6.80
2019-04-26T14:41:39.494Z,4.73
2019-04-26T14:44:15.833Z,4.63
2019-04-26T14:46:49.078Z,3.87
2019-04-26T14:49:19.232Z,5.70
2019-04-26T14:51:51.160Z,5.67
2019-04-26T14:54:20.862Z,4.80
2019-04-26T14:56:52.607Z,5.40
2019-04-26T14:59:44.426Z,5.03
2019-04-26T15:02:47.162Z,6.97
2019-04-26T15:05:33.332Z,3.87
2019-04-26T15:08:09.454Z,3.47
2019-04-26T15:10:44.345Z,4.97
2019-04-26T15:13:19.986Z,4.27
2019-04-26T15:15:46.171Z,3.60
2019-04-26T15:18:16.508Z,5.87
2019-04-26T15:20:47.368Z,5.10
2019-04-26T15:23:23.111Z,5.33
2019-04-26T15:25:52.856Z,3.70
2019-04-26T15:28:23.943Z,4.60
2019-04-26T15:30:54.730Z,5.67
2019-04-26T15:33:26.659Z,3.23
2019-04-26T15:35:57.588Z,4.10
2019-04-26T15:38:35.148Z,3.23
2019-04-26T15:41:33.184Z,3.77
2019-04-26T15:44:13.630Z,4.50
2019-04-26T15:46:54.836Z,4.67
2019-04-26T15:50:05.546Z,3.97
2019-04-26T15:52:34.110Z,4.53
2019-04-26T15:55:06.187Z,4.27
2019-04-26T15:57:37.038Z,3.67
2019-04-26T16:00:10.517Z,5.53
2019-04-26T16:02:42.757Z,5.20
2019-04-26T16:05:16.551Z,6.07
2019-04-26T16:07:46.495Z,4.80
2019-04-26T16:10:17.643Z,4.90
2019-04-26T16:12:52.247Z,3.70
2019-04-26T16:15:23.354Z,6.07
2019-04-26T16:17:54.389Z,4.33
2019-04-26T16:20:25.297Z,4.00
2019-04-26T16:22:56.158Z,7.73
2019-04-26T16:25:27.192Z,6.80
2019-04-26T16:28:16.116Z,5.43
2019-04-26T16:31:02.460Z,3.43
2019-04-26T16:33:35.598Z,5.03
2019-04-26T16:36:06.572Z,5.57
2019-04-26T16:38:38.320Z,3.83
2019-04-26T16:41:09.172Z,4.80
2019-04-26T16:43:44.868Z,6.53
2019-04-26T16:46:20.210Z,5.03
2019-04-26T16:48:46.435Z,6.33
2019-04-26T16:51:17.317Z,5.37
2019-04-26T16:54:03.657Z,4.23
2019-04-26T16:56:25.822Z,4.57
2019-04-26T16:58:55.129Z,6.00
2019-04-26T17:01:26.183Z,5.47
2019-04-26T17:03:57.141Z,7.17
2019-04-26T17:06:27.931Z,5.53
2019-04-26T17:09:50.249Z,4.60
2019-04-26T17:11:35.019Z,5.97
2019-04-26T17:14:09.958Z,4.87
2019-04-26T17:16:38.410Z,4.63
2019-04-26T17:19:09.361Z,5.17
2019-04-26T17:21:49.756Z,4.50
2019-04-26T17:24:46.418Z,6.07
2019-04-26T17:27:18.167Z,5.50
2019-04-26T17:29:49.069Z,5.10
2019-04-26T17:32:19.951Z,4.57
2019-04-26T17:34:54.075Z,7.23
2019-04-26T17:37:26.496Z,7.30
2019-04-26T17:39:55.906Z,7.53
2019-04-26T17:42:29.744Z,4.57
2019-04-26T17:45:03.861Z,4.73
2019-04-26T17:47:36.723Z,5.35
2019-04-26T17:50:06.879Z,6.62
2019-04-26T17:52:37.953Z,7.47
2019-04-26T17:55:11.954Z,5.80
2019-04-26T17:57:49.900Z,4.07
2019-04-26T18:00:32.722Z,3.53
2019-04-26T18:03:01.500Z,6.37
2019-04-26T18:05:45.101Z,4.72
2019-04-26T18:08:32.790Z,3.90
2019-04-26T18:10:40.081Z,6.00
2019-04-26T18:13:16.296Z,4.40
2019-04-26T18:15:48.354Z,4.10
2019-04-26T18:18:35.764Z,6.07
2019-04-26T18:21:24.401Z,3.90
2019-04-26T18:23:57.236Z,5.33
2019-04-26T18:26:27.994Z,5.47
2019-04-26T18:28:58.961Z,5.10
2019-04-26T18:31:30.220Z,5.00
2019-04-26T18:34:03.932Z,4.83
2019-04-26T18:36:36.236Z,5.03
2019-04-26T18:39:09.587Z,6.50
2019-04-26T18:41:41.037Z,5.50
2019-04-26T18:44:13.675Z,5.10
2019-04-26T18:46:55.843Z,5.13
2019-04-26T18:49:27.789Z,6.43
2019-04-26T18:51:58.687Z,6.10
2019-04-26T18:54:52.443Z,6.50
2019-04-26T18:57:23.895Z,7.23
2019-04-26T18:59:54.826Z,8.37
2019-04-26T19:02:27.197Z,7.10
2019-04-26T19:04:58.080Z,6.07
2019-04-26T19:07:32.250Z,6.87
2019-04-26T19:10:04.915Z,6.77
2019-04-26T19:12:35.328Z,7.73
2019-04-26T19:15:44.379Z,6.87
2019-04-26T19:18:22.026Z,6.77
2019-04-26T19:21:08.345Z,6.67
2019-04-26T19:23:39.433Z,7.57
2019-04-26T19:26:13.682Z,8.03
2019-04-26T19:28:44.471Z,8.23
2019-04-26T19:31:19.250Z,6.60
2019-04-26T19:33:51.728Z,6.83
2019-04-26T19:36:25.735Z,9.70
2019-04-26T19:38:55.541Z,6.57
2019-04-26T19:41:27.177Z,6.87
2019-04-26T19:43:58.309Z,6.37
2019-04-26T19:46:45.102Z,6.47
2019-04-26T19:49:47.285Z,7.70
2019-04-26T19:52:26.616Z,6.07
2019-04-26T19:55:15.239Z,6.53
2019-04-26T19:58:09.576Z,7.37
2019-04-26T20:00:43.368Z,6.30
2019-04-26T20:03:16.522Z,6.43
2019-04-26T20:05:45.280Z,6.83
2019-04-26T20:08:16.279Z,6.40
2019-04-26T20:10:47.173Z,6.20
2019-04-26T20:13:18.031Z,7.23
2019-04-26T20:15:51.554Z,6.10
2019-04-26T20:18:22.562Z,5.97
2019-04-26T20:20:53.638Z,6.50
2019-04-26T20:23:24.527Z,7.37
2019-04-26T20:25:55.332Z,6.07
2019-04-26T20:28:29.684Z,7.17
2019-04-26T20:31:27.013Z,7.13
2019-04-26T20:33:57.847Z,6.17
2019-04-26T20:36:28.728Z,6.83
2019-04-26T20:38:59.728Z,6.80
2019-04-26T20:41:32.615Z,6.27
2019-04-26T20:44:09.467Z,5.97
2019-04-26T20:46:37.760Z,6.23
2019-04-26T20:49:09.331Z,8.43
2019-04-26T20:51:42.445Z,9.50
2019-04-26T20:54:16.222Z,8.57
2019-04-26T20:56:46.175Z,10.90
2019-04-26T20:59:20.262Z,11.23
2019-04-26T21:02:02.673Z,10.97
2019-04-26T21:04:35.003Z,9.80
2019-04-26T21:06:56.903Z,9.30
2019-04-26T21:09:27.844Z,8.33
2019-04-26T21:11:58.844Z,8.57
2019-04-26T21:14:31.660Z,9.27
2019-04-26T21:17:02.574Z,8.83
2019-04-26T21:19:35.642Z,7.63
2019-04-26T21:22:06.526Z,8.00
2019-04-26T21:24:41.310Z,7.40
2019-04-26T21:27:31.796Z,8.37
2019-04-26T21:30:10.720Z,8.00
2019-04-26T21:33:03.702Z,7.90
2019-04-26T21:35:44.529Z,10.07
2019-04-26T21:38:29.661Z,9.17
2019-04-26T21:41:19.518Z,7.27
2019-04-26T21:43:53.266Z,7.97
2019-04-26T21:46:24.293Z,9.30
2019-04-26T21:48:55.228Z,7.87
2019-04-26T21:51:26.143Z,7.43
2019-04-26T21:53:57.254Z,10.03
2019-04-26T21:56:28.162Z,7.30
2019-04-26T21:58:59.086Z,7.47
2019-04-26T22:01:30.243Z,7.97
2019-04-26T22:04:03.008Z,6.93
2019-04-26T22:06:34.115Z,6.77
2019-04-26T22:09:15.250Z,6.57
2019-04-26T22:11:49.419Z,7.47
2019-04-26T22:14:23.634Z,7.27
2019-04-26T22:17:28.722Z,8.57
2019-04-26T22:20:23.406Z,8.77
2019-04-26T22:23:18.067Z,9.53
2019-04-26T22:25:51.044Z,8.40
2019-04-26T22:28:23.458Z,8.70
2019-04-26T22:30:59.349Z,9.33
2019-04-26T22:33:30.817Z,8.77
2019-04-26T22:36:01.393Z,9.67
2019-04-26T22:38:33.940Z,7.17
2019-04-26T22:41:06.203Z,11.20
2019-04-26T22:43:54.087Z,11.83
2019-04-26T22:46:50.023Z,10.40
2019-04-26T22:49:20.944Z,9.53
2019-04-26T22:51:51.920Z,10.03
2019-04-26T22:54:23.092Z,10.27
2019-04-26T22:56:55.520Z,10.83
2019-04-26T22:59:26.342Z,9.03
2019-04-26T23:01:57.128Z,8.53
2019-04-26T23:04:27.901Z,9.37
2019-04-26T23:06:58.683Z,11.30
2019-04-26T23:09:29.494Z,8.57
2019-04-26T23:12:28.099Z,9.73
2019-04-26T23:15:15.532Z,11.10
2019-04-26T23:18:20.374Z,11.03
2019-04-26T23:20:55.905Z,9.57
2019-04-26T23:23:26.834Z,8.90
2019-04-26T23:25:57.692Z,10.67
2019-04-26T23:28:34.034Z,9.67
2019-04-26T23:31:01.513Z,10.30
2019-04-26T23:33:36.347Z,13.40
2019-04-26T23:36:07.291Z,9.67
2019-04-26T23:38:38.070Z,9.17
2019-04-26T23:41:08.836Z,9.53
2019-04-26T23:43:39.608Z,10.23
2019-04-26T23:46:10.418Z,9.20
2019-04-26T23:48:42.723Z,8.50
2019-04-26T23:51:13.884Z,6.80
2019-04-26T23:53:44.680Z,8.20
2019-04-26T23:56:21.769Z,7.77
2019-04-26T23:58:49.043Z,7.67
